Terminal Aerodrome Forecast
Issued by NWS Newport/Morehead City, NC

Home | Current Version | Previous Version | Text Only | Print | Product List | Glossary On
Versions: 1 2 3 4 5 6 7 8 9 10 11 12 13 14
000
FTUS42 KMHX 261100
TAFEWN
TAF
KEWN 261121Z 2612/2712 02006KT P6SM SKC
     FM261500 04012G18KT P6SM SCT025 BKN050
     FM262000 04010G16KT P6SM SKC
     FM270100 05007KT P6SM SKC=

USA.gov is the U.S. government's official web portal to all federal, state and local government web resources and services.